sensor_id;sensor_type;location;lat;lon;timestamp;P1;durP1;ratioP1;P2;durP2;ratioP2
3791;SDS011;1911;53.768;11.474;2023-03-01T00:01:35;6.67;;;3.80;;
3791;SDS011;1911;53.768;11.474;2023-03-01T00:04:01;7.03;;;4.10;;
3791;SDS011;1911;53.768;11.474;2023-03-01T00:06:26;7.37;;;3.30;;
3791;SDS011;1911;53.768;11.474;2023-03-01T00:08:52;6.57;;;3.40;;
3791;SDS011;1911;53.768;11.474;2023-03-01T00:13:45;6.38;;;3.60;;
3791;SDS011;1911;53.768;11.474;2023-03-01T00:16:14;5.68;;;4.20;;
3791;SDS011;1911;53.768;11.474;2023-03-01T00:18:44;7.32;;;4.65;;
3791;SDS011;1911;53.768;11.474;2023-03-01T00:21:09;9.50;;;5.00;;
3791;SDS011;1911;53.768;11.474;2023-03-01T00:23:35;14.23;;;5.03;;
3791;SDS011;1911;53.768;11.474;2023-03-01T00:26:02;8.65;;;4.45;;
3791;SDS011;1911;53.768;11.474;2023-03-01T00:28:31;11.10;;;5.20;;
3791;SDS011;1911;53.768;11.474;2023-03-01T00:31:02;10.07;;;5.00;;
3791;SDS011;1911;53.768;11.474;2023-03-01T00:33:32;6.72;;;4.03;;
3791;SDS011;1911;53.768;11.474;2023-03-01T00:35:58;8.10;;;4.30;;
3791;SDS011;1911;53.768;11.474;2023-03-01T00:38:24;7.00;;;4.35;;
3791;SDS011;1911;53.768;11.474;2023-03-01T00:40:50;7.28;;;4.43;;
3791;SDS011;1911;53.768;11.474;2023-03-01T00:43:16;8.80;;;5.27;;
3791;SDS011;1911;53.768;11.474;2023-03-01T00:45:43;6.45;;;3.65;;
3791;SDS011;1911;53.768;11.474;2023-03-01T00:48:08;6.90;;;3.80;;
3791;SDS011;1911;53.768;11.474;2023-03-01T00:50:34;9.10;;;4.13;;
3791;SDS011;1911;53.768;11.474;2023-03-01T00:52:59;7.47;;;4.30;;
3791;SDS011;1911;53.768;11.474;2023-03-01T00:55:25;5.27;;;3.60;;
3791;SDS011;1911;53.768;11.474;2023-03-01T00:57:51;7.97;;;4.10;;
3791;SDS011;1911;53.768;11.474;2023-03-01T01:00:19;9.00;;;4.63;;
3791;SDS011;1911;53.768;11.474;2023-03-01T01:02:45;8.38;;;4.57;;
3791;SDS011;1911;53.768;11.474;2023-03-01T01:05:14;15.85;;;5.75;;
3791;SDS011;1911;53.768;11.474;2023-03-01T01:07:45;6.15;;;3.63;;
3791;SDS011;1911;53.768;11.474;2023-03-01T01:10:11;7.90;;;4.43;;
3791;SDS011;1911;53.768;11.474;2023-03-01T01:12:41;9.10;;;4.68;;
3791;SDS011;1911;53.768;11.474;2023-03-01T01:15:08;10.75;;;5.32;;
3791;SDS011;1911;53.768;11.474;2023-03-01T01:17:37;10.98;;;4.25;;
3791;SDS011;1911;53.768;11.474;2023-03-01T01:20:03;14.17;;;5.50;;
3791;SDS011;1911;53.768;11.474;2023-03-01T01:22:31;7.53;;;4.57;;
3791;SDS011;1911;53.768;11.474;2023-03-01T01:24:56;9.27;;;4.50;;
3791;SDS011;1911;53.768;11.474;2023-03-01T01:27:22;9.63;;;4.67;;
3791;SDS011;1911;53.768;11.474;2023-03-01T01:29:47;10.33;;;4.63;;
3791;SDS011;1911;53.768;11.474;2023-03-01T01:32:13;9.80;;;5.00;;
3791;SDS011;1911;53.768;11.474;2023-03-01T01:34:39;7.80;;;4.90;;
3791;SDS011;1911;53.768;11.474;2023-03-01T01:37:04;9.80;;;4.30;;
3791;SDS011;1911;53.768;11.474;2023-03-01T01:39:33;10.20;;;4.38;;
3791;SDS011;1911;53.768;11.474;2023-03-01T01:41:59;12.13;;;5.43;;
3791;SDS011;1911;53.768;11.474;2023-03-01T01:44:27;9.02;;;4.53;;
3791;SDS011;1911;53.768;11.474;2023-03-01T01:46:55;6.60;;;3.65;;
3791;SDS011;1911;53.768;11.474;2023-03-01T01:49:27;11.73;;;4.85;;
3791;SDS011;1911;53.768;11.474;2023-03-01T01:51:59;6.93;;;4.15;;
3791;SDS011;1911;53.768;11.474;2023-03-01T01:57:17;7.93;;;3.63;;
3791;SDS011;1911;53.768;11.474;2023-03-01T01:59:53;4.95;;;2.85;;
3791;SDS011;1911;53.768;11.474;2023-03-01T02:02:21;6.03;;;3.30;;
3791;SDS011;1911;53.768;11.474;2023-03-01T02:04:48;4.70;;;3.00;;
3791;SDS011;1911;53.768;11.474;2023-03-01T02:07:19;6.97;;;3.53;;
3791;SDS011;1911;53.768;11.474;2023-03-01T02:09:48;6.28;;;3.65;;
3791;SDS011;1911;53.768;11.474;2023-03-01T02:12:15;7.80;;;4.00;;
3791;SDS011;1911;53.768;11.474;2023-03-01T02:14:45;4.63;;;3.28;;
3791;SDS011;1911;53.768;11.474;2023-03-01T08:43:12;23.87;;;11.10;;
3791;SDS011;1911;53.768;11.474;2023-03-01T08:45:38;24.40;;;11.23;;
3791;SDS011;1911;53.768;11.474;2023-03-01T08:48:03;20.90;;;12.80;;
3791;SDS011;1911;53.768;11.474;2023-03-01T08:50:29;27.90;;;13.13;;
3791;SDS011;1911;53.768;11.474;2023-03-01T08:52:54;23.63;;;13.73;;
3791;SDS011;1911;53.768;11.474;2023-03-01T08:55:20;26.57;;;12.70;;
3791;SDS011;1911;53.768;11.474;2023-03-01T08:57:45;21.97;;;13.33;;
3791;SDS011;1911;53.768;11.474;2023-03-01T09:00:11;28.50;;;14.83;;
3791;SDS011;1911;53.768;11.474;2023-03-01T09:02:39;27.10;;;12.50;;
3791;SDS011;1911;53.768;11.474;2023-03-01T09:05:05;18.43;;;10.47;;
3791;SDS011;1911;53.768;11.474;2023-03-01T09:07:31;20.83;;;12.20;;
3791;SDS011;1911;53.768;11.474;2023-03-01T09:09:56;21.07;;;11.30;;
3791;SDS011;1911;53.768;11.474;2023-03-01T09:12:22;16.13;;;9.93;;
3791;SDS011;1911;53.768;11.474;2023-03-01T09:14:47;21.50;;;10.77;;
3791;SDS011;1911;53.768;11.474;2023-03-01T09:17:13;19.00;;;11.17;;
3791;SDS011;1911;53.768;11.474;2023-03-01T09:19:39;21.47;;;11.57;;
3791;SDS011;1911;53.768;11.474;2023-03-01T09:22:04;22.87;;;12.17;;
3791;SDS011;1911;53.768;11.474;2023-03-01T09:24:30;19.10;;;10.37;;
3791;SDS011;1911;53.768;11.474;2023-03-01T09:26:55;21.10;;;11.57;;
3791;SDS011;1911;53.768;11.474;2023-03-01T09:29:21;22.17;;;12.07;;
3791;SDS011;1911;53.768;11.474;2023-03-01T09:31:47;22.50;;;12.30;;
3791;SDS011;1911;53.768;11.474;2023-03-01T09:34:13;20.80;;;10.20;;
3791;SDS011;1911;53.768;11.474;2023-03-01T09:36:41;19.13;;;11.07;;
3791;SDS011;1911;53.768;11.474;2023-03-01T09:39:06;20.00;;;11.50;;
3791;SDS011;1911;53.768;11.474;2023-03-01T09:46:43;23.00;;;11.87;;
3791;SDS011;1911;53.768;11.474;2023-03-01T09:49:11;19.83;;;11.33;;
3791;SDS011;1911;53.768;11.474;2023-03-01T09:51:41;17.77;;;11.30;;
3791;SDS011;1911;53.768;11.474;2023-03-01T09:54:08;17.80;;;11.00;;
3791;SDS011;1911;53.768;11.474;2023-03-01T09:59:23;20.87;;;13.00;;
3791;SDS011;1911;53.768;11.474;2023-03-01T10:04:45;23.57;;;13.03;;
3791;SDS011;1911;53.768;11.474;2023-03-01T10:09:59;20.83;;;11.00;;
3791;SDS011;1911;53.768;11.474;2023-03-01T10:12:33;21.87;;;11.70;;
3791;SDS011;1911;53.768;11.474;2023-03-01T10:15:05;18.50;;;11.43;;
3791;SDS011;1911;53.768;11.474;2023-03-01T10:17:45;19.60;;;11.23;;
3791;SDS011;1911;53.768;11.474;2023-03-01T10:20:21;24.17;;;12.63;;
3791;SDS011;1911;53.768;11.474;2023-03-01T10:22:54;18.13;;;10.37;;
3791;SDS011;1911;53.768;11.474;2023-03-01T10:25:44;20.77;;;11.80;;
3791;SDS011;1911;53.768;11.474;2023-03-01T10:30:56;16.97;;;10.33;;
3791;SDS011;1911;53.768;11.474;2023-03-01T10:33:25;17.77;;;9.50;;
3791;SDS011;1911;53.768;11.474;2023-03-01T10:35:54;23.10;;;12.00;;
3791;SDS011;1911;53.768;11.474;2023-03-01T10:38:20;20.07;;;11.50;;
3791;SDS011;1911;53.768;11.474;2023-03-01T10:40:55;22.00;;;12.73;;
3791;SDS011;1911;53.768;11.474;2023-03-01T10:43:26;22.37;;;12.10;;
3791;SDS011;1911;53.768;11.474;2023-03-01T10:45:57;22.33;;;11.60;;
3791;SDS011;1911;53.768;11.474;2023-03-01T10:48:23;21.77;;;11.60;;
3791;SDS011;1911;53.768;11.474;2023-03-01T10:53:33;16.27;;;10.43;;
3791;SDS011;1911;53.768;11.474;2023-03-01T10:58:38;23.43;;;12.40;;
3791;SDS011;1911;53.768;11.474;2023-03-01T11:01:08;20.00;;;10.90;;
3791;SDS011;1911;53.768;11.474;2023-03-01T11:04:09;20.83;;;11.13;;
3791;SDS011;1911;53.768;11.474;2023-03-01T11:06:38;19.23;;;11.10;;
3791;SDS011;1911;53.768;11.474;2023-03-01T11:09:15;26.07;;;12.23;;
3791;SDS011;1911;53.768;11.474;2023-03-01T11:11:55;20.60;;;11.53;;
3791;SDS011;1911;53.768;11.474;2023-03-01T11:14:22;23.50;;;12.30;;
3791;SDS011;1911;53.768;11.474;2023-03-01T11:19:37;23.03;;;11.33;;
3791;SDS011;1911;53.768;11.474;2023-03-01T11:24:59;17.50;;;11.20;;
3791;SDS011;1911;53.768;11.474;2023-03-01T11:27:28;19.90;;;11.50;;
3791;SDS011;1911;53.768;11.474;2023-03-01T11:32:43;19.17;;;10.27;;
3791;SDS011;1911;53.768;11.474;2023-03-01T11:35:26;19.67;;;10.93;;
3791;SDS011;1911;53.768;11.474;2023-03-01T11:41:11;23.27;;;11.70;;
3791;SDS011;1911;53.768;11.474;2023-03-01T11:43:35;18.80;;;10.47;;
3791;SDS011;1911;53.768;11.474;2023-03-01T11:46:42;25.93;;;13.47;;
3791;SDS011;1911;53.768;11.474;2023-03-01T11:52:32;24.40;;;12.90;;
3791;SDS011;1911;53.768;11.474;2023-03-01T11:55:07;27.83;;;15.53;;
3791;SDS011;1911;53.768;11.474;2023-03-01T11:58:03;26.57;;;12.87;;
3791;SDS011;1911;53.768;11.474;2023-03-01T12:08:37;26.10;;;15.30;;
3791;SDS011;1911;53.768;11.474;2023-03-01T12:14:12;24.77;;;12.87;;
3791;SDS011;1911;53.768;11.474;2023-03-01T12:19:46;24.13;;;14.47;;
3791;SDS011;1911;53.768;11.474;2023-03-01T12:44:35;25.17;;;14.57;;
3791;SDS011;1911;53.768;11.474;2023-03-01T12:50:28;29.13;;;14.10;;
3791;SDS011;1911;53.768;11.474;2023-03-01T12:53:13;24.83;;;13.20;;
3791;SDS011;1911;53.768;11.474;2023-03-01T12:55:50;30.40;;;14.97;;
3791;SDS011;1911;53.768;11.474;2023-03-01T12:58:24;25.10;;;15.13;;
3791;SDS011;1911;53.768;11.474;2023-03-01T13:09:14;31.97;;;16.60;;
3791;SDS011;1911;53.768;11.474;2023-03-01T13:11:49;34.43;;;17.87;;
3791;SDS011;1911;53.768;11.474;2023-03-01T13:16:49;35.77;;;17.80;;
3791;SDS011;1911;53.768;11.474;2023-03-01T13:19:18;39.63;;;19.47;;
3791;SDS011;1911;53.768;11.474;2023-03-01T13:21:53;29.47;;;13.37;;
3791;SDS011;1911;53.768;11.474;2023-03-01T13:24:32;41.07;;;19.57;;
3791;SDS011;1911;53.768;11.474;2023-03-01T13:29:43;55.50;;;25.03;;
3791;SDS011;1911;53.768;11.474;2023-03-01T13:34:57;54.60;;;25.00;;
3791;SDS011;1911;53.768;11.474;2023-03-01T13:37:33;62.93;;;30.43;;
3791;SDS011;1911;53.768;11.474;2023-03-01T13:42:44;66.23;;;27.20;;
3791;SDS011;1911;53.768;11.474;2023-03-01T13:48:15;64.07;;;28.77;;
3791;SDS011;1911;53.768;11.474;2023-03-01T13:50:50;57.70;;;26.40;;
3791;SDS011;1911;53.768;11.474;2023-03-01T13:53:20;42.90;;;21.30;;
3791;SDS011;1911;53.768;11.474;2023-03-01T13:56:16;39.93;;;18.37;;
3791;SDS011;1911;53.768;11.474;2023-03-01T13:59:12;33.47;;;16.07;;
3791;SDS011;1911;53.768;11.474;2023-03-01T14:04:42;35.43;;;16.23;;
3791;SDS011;1911;53.768;11.474;2023-03-01T14:09:52;36.50;;;16.40;;
3791;SDS011;1911;53.768;11.474;2023-03-01T14:12:29;43.47;;;16.80;;
3791;SDS011;1911;53.768;11.474;2023-03-01T14:15:36;29.30;;;16.00;;
3791;SDS011;1911;53.768;11.474;2023-03-01T14:18:19;34.40;;;15.37;;
3791;SDS011;1911;53.768;11.474;2023-03-01T14:20:55;26.63;;;11.90;;
3791;SDS011;1911;53.768;11.474;2023-03-01T14:23:21;29.60;;;13.70;;
3791;SDS011;1911;53.768;11.474;2023-03-01T14:25:52;28.47;;;12.10;;
3791;SDS011;1911;53.768;11.474;2023-03-01T14:28:27;36.43;;;15.33;;
3791;SDS011;1911;53.768;11.474;2023-03-01T14:30:58;27.77;;;13.10;;
3791;SDS011;1911;53.768;11.474;2023-03-01T14:33:25;31.83;;;13.40;;
3791;SDS011;1911;53.768;11.474;2023-03-01T14:35:59;31.33;;;15.47;;
3791;SDS011;1911;53.768;11.474;2023-03-01T14:38:37;29.43;;;13.87;;
3791;SDS011;1911;53.768;11.474;2023-03-01T14:41:23;50.77;;;21.20;;
3791;SDS011;1911;53.768;11.474;2023-03-01T14:43:55;53.67;;;21.90;;
3791;SDS011;1911;53.768;11.474;2023-03-01T14:46:33;42.23;;;17.00;;
3791;SDS011;1911;53.768;11.474;2023-03-01T14:51:54;62.63;;;24.73;;
3791;SDS011;1911;53.768;11.474;2023-03-01T14:57:06;79.00;;;29.47;;
3791;SDS011;1911;53.768;11.474;2023-03-01T14:59:41;75.53;;;28.23;;
3791;SDS011;1911;53.768;11.474;2023-03-01T15:02:35;57.57;;;23.90;;
3791;SDS011;1911;53.768;11.474;2023-03-01T15:05:04;46.10;;;17.87;;
3791;SDS011;1911;53.768;11.474;2023-03-01T15:07:33;49.77;;;19.23;;
3791;SDS011;1911;53.768;11.474;2023-03-01T15:10:01;46.60;;;20.52;;
3791;SDS011;1911;53.768;11.474;2023-03-01T15:12:37;46.27;;;17.60;;
3791;SDS011;1911;53.768;11.474;2023-03-01T15:15:26;43.43;;;15.43;;
3791;SDS011;1911;53.768;11.474;2023-03-01T15:18:04;33.80;;;14.57;;
3791;SDS011;1911;53.768;11.474;2023-03-01T15:20:45;28.73;;;12.23;;
3791;SDS011;1911;53.768;11.474;2023-03-01T15:23:28;36.10;;;12.60;;
3791;SDS011;1911;53.768;11.474;2023-03-01T15:25:55;35.53;;;12.50;;
3791;SDS011;1911;53.768;11.474;2023-03-01T15:28:23;30.23;;;13.27;;
3791;SDS011;1911;53.768;11.474;2023-03-01T15:33:43;31.48;;;11.93;;
3791;SDS011;1911;53.768;11.474;2023-03-01T15:39:03;40.60;;;14.33;;
3791;SDS011;1911;53.768;11.474;2023-03-01T15:41:38;35.63;;;14.80;;
3791;SDS011;1911;53.768;11.474;2023-03-01T15:44:26;35.80;;;14.60;;
3791;SDS011;1911;53.768;11.474;2023-03-01T15:46:55;54.95;;;15.68;;
3791;SDS011;1911;53.768;11.474;2023-03-01T15:49:41;38.78;;;17.08;;
3791;SDS011;1911;53.768;11.474;2023-03-01T15:52:24;47.53;;;15.13;;
3791;SDS011;1911;53.768;11.474;2023-03-01T15:55:00;30.70;;;9.00;;
3791;SDS011;1911;53.768;11.474;2023-03-01T15:57:28;34.38;;;12.52;;
3791;SDS011;1911;53.768;11.474;2023-03-01T15:59:54;22.20;;;10.23;;
3791;SDS011;1911;53.768;11.474;2023-03-01T16:02:20;40.50;;;13.00;;
3791;SDS011;1911;53.768;11.474;2023-03-01T16:04:49;23.20;;;11.00;;
3791;SDS011;1911;53.768;11.474;2023-03-01T16:07:15;23.53;;;10.00;;
3791;SDS011;1911;53.768;11.474;2023-03-01T16:09:40;25.43;;;9.87;;
3791;SDS011;1911;53.768;11.474;2023-03-01T16:12:18;18.75;;;9.32;;
3791;SDS011;1911;53.768;11.474;2023-03-01T16:14:45;22.67;;;9.65;;
3791;SDS011;1911;53.768;11.474;2023-03-01T16:17:10;26.70;;;11.43;;
3791;SDS011;1911;53.768;11.474;2023-03-01T16:19:41;42.93;;;12.17;;
3791;SDS011;1911;53.768;11.474;2023-03-01T16:22:13;33.10;;;11.55;;
3791;SDS011;1911;53.768;11.474;2023-03-01T16:24:38;29.10;;;11.17;;
3791;SDS011;1911;53.768;11.474;2023-03-01T16:27:16;53.28;;;13.27;;
3791;SDS011;1911;53.768;11.474;2023-03-01T16:54:05;30.73;;;9.25;;
3791;SDS011;1911;53.768;11.474;2023-03-01T17:04:19;44.55;;;10.20;;
3791;SDS011;1911;53.768;11.474;2023-03-01T17:24:30;30.38;;;10.45;;
3791;SDS011;1911;53.768;11.474;2023-03-01T17:27:47;54.90;;;12.60;;
3791;SDS011;1911;53.768;11.474;2023-03-01T17:48:12;57.67;;;14.85;;
3791;SDS011;1911;53.768;11.474;2023-03-01T18:12:11;51.70;;;16.17;;
3791;SDS011;1911;53.768;11.474;2023-03-01T18:49:48;49.58;;;18.52;;
3791;SDS011;1911;53.768;11.474;2023-03-01T19:24:12;72.57;;;23.20;;
3791;SDS011;1911;53.768;11.474;2023-03-01T19:58:44;80.10;;;23.58;;
3791;SDS011;1911;53.768;11.474;2023-03-01T22:07:49;79.20;;;17.10;;
3791;SDS011;1911;53.768;11.474;2023-03-01T22:10:19;53.72;;;14.93;;
3791;SDS011;1911;53.768;11.474;2023-03-01T22:12:54;64.95;;;15.15;;
3791;SDS011;1911;53.768;11.474;2023-03-01T22:15:40;57.80;;;17.45;;
3791;SDS011;1911;53.768;11.474;2023-03-01T22:18:07;59.05;;;16.80;;
3791;SDS011;1911;53.768;11.474;2023-03-01T22:20:33;34.88;;;12.73;;
3791;SDS011;1911;53.768;11.474;2023-03-01T22:23:05;89.35;;;17.27;;
3791;SDS011;1911;53.768;11.474;2023-03-01T22:25:32;75.30;;;17.67;;
3791;SDS011;1911;53.768;11.474;2023-03-01T22:28:05;56.50;;;15.38;;
3791;SDS011;1911;53.768;11.474;2023-03-01T22:30:36;54.95;;;16.60;;
3791;SDS011;1911;53.768;11.474;2023-03-01T22:33:02;49.73;;;14.10;;
3791;SDS011;1911;53.768;11.474;2023-03-01T22:35:28;51.85;;;15.70;;
3791;SDS011;1911;53.768;11.474;2023-03-01T22:37:54;73.10;;;14.77;;
3791;SDS011;1911;53.768;11.474;2023-03-01T22:40:25;58.97;;;15.70;;
3791;SDS011;1911;53.768;11.474;2023-03-01T22:42:55;64.95;;;16.33;;
3791;SDS011;1911;53.768;11.474;2023-03-01T22:45:21;65.07;;;17.13;;
3791;SDS011;1911;53.768;11.474;2023-03-01T22:47:47;80.50;;;16.60;;
3791;SDS011;1911;53.768;11.474;2023-03-01T22:50:13;92.90;;;17.17;;
3791;SDS011;1911;53.768;11.474;2023-03-01T22:52:41;71.05;;;16.70;;
3791;SDS011;1911;53.768;11.474;2023-03-01T22:55:10;78.90;;;16.67;;
3791;SDS011;1911;53.768;11.474;2023-03-01T22:57:41;106.45;;;17.00;;
3791;SDS011;1911;53.768;11.474;2023-03-01T23:00:06;59.27;;;15.23;;
3791;SDS011;1911;53.768;11.474;2023-03-01T23:02:40;65.07;;;14.43;;
3791;SDS011;1911;53.768;11.474;2023-03-01T23:05:08;58.53;;;15.98;;
3791;SDS011;1911;53.768;11.474;2023-03-01T23:07:40;61.40;;;13.52;;
3791;SDS011;1911;53.768;11.474;2023-03-01T23:10:11;57.30;;;15.75;;
3791;SDS011;1911;53.768;11.474;2023-03-01T23:12:38;63.25;;;15.48;;
3791;SDS011;1911;53.768;11.474;2023-03-01T23:15:09;67.50;;;13.52;;
3791;SDS011;1911;53.768;11.474;2023-03-01T23:17:35;77.43;;;16.88;;
3791;SDS011;1911;53.768;11.474;2023-03-01T23:20:04;70.13;;;15.30;;
3791;SDS011;1911;53.768;11.474;2023-03-01T23:22:38;62.65;;;15.63;;
3791;SDS011;1911;53.768;11.474;2023-03-01T23:25:05;98.00;;;17.05;;
3791;SDS011;1911;53.768;11.474;2023-03-01T23:27:42;100.68;;;17.83;;
3791;SDS011;1911;53.768;11.474;2023-03-01T23:30:23;76.60;;;19.58;;
3791;SDS011;1911;53.768;11.474;2023-03-01T23:32:54;87.20;;;17.42;;
3791;SDS011;1911;53.768;11.474;2023-03-01T23:35:27;104.40;;;17.73;;
3791;SDS011;1911;53.768;11.474;2023-03-01T23:37:57;128.65;;;20.00;;
3791;SDS011;1911;53.768;11.474;2023-03-01T23:40:23;160.68;;;21.40;;
3791;SDS011;1911;53.768;11.474;2023-03-01T23:42:49;97.87;;;20.20;;
3791;SDS011;1911;53.768;11.474;2023-03-01T23:45:16;122.07;;;19.70;;
3791;SDS011;1911;53.768;11.474;2023-03-01T23:47:44;79.68;;;20.08;;
3791;SDS011;1911;53.768;11.474;2023-03-01T23:50:24;132.52;;;24.77;;
3791;SDS011;1911;53.768;11.474;2023-03-01T23:52:53;147.82;;;28.20;;
3791;SDS011;1911;53.768;11.474;2023-03-01T23:55:19;158.23;;;26.90;;
3791;SDS011;1911;53.768;11.474;2023-03-01T23:57:54;126.85;;;26.83;;
